createdAt,value
2016-01-18T06:01:53.347Z,1011.29
2016-01-18T06:02:53.210Z,1011.28
2016-01-18T06:03:53.399Z,1011.28
2016-01-18T06:04:53.324Z,1011.25
2016-01-18T06:05:53.388Z,1011.23
2016-01-18T06:06:53.377Z,1011.24
2016-01-18T06:07:53.519Z,1011.22
2016-01-18T06:08:53.538Z,1011.21
2016-01-18T06:09:53.962Z,1011.23
2016-01-18T06:10:53.652Z,1011.22
2016-01-18T06:11:53.687Z,1011.22
2016-01-18T06:12:53.595Z,1011.23
2016-01-18T06:13:53.754Z,1011.24
2016-01-18T06:14:53.773Z,1011.26
2016-01-18T06:15:53.728Z,1011.23
2016-01-18T06:17:40.125Z,1011.21
2016-01-18T06:18:40.081Z,1011.23
2016-01-18T06:19:40.286Z,1011.24
2016-01-18T06:20:40.273Z,1011.22
2016-01-18T06:21:40.323Z,1011.2
2016-01-18T06:22:40.310Z,1011.24
2016-01-18T06:23:40.312Z,1011.21
2016-01-18T06:24:40.347Z,1011.18
2016-01-18T06:25:40.380Z,1011.14
2016-01-18T06:26:40.414Z,1011.14
2016-01-18T06:27:40.448Z,1011.12
2016-01-18T06:28:40.483Z,1011.15
2016-01-18T06:29:40.516Z,1011.12
2016-01-18T06:30:40.566Z,1011.16
2016-01-18T06:31:40.600Z,1011.18
2016-01-18T06:32:40.634Z,1011.1
2016-01-18T06:33:40.683Z,1011.15
2016-01-18T06:34:40.717Z,1011.11
2016-01-18T06:35:40.767Z,1011.08
2016-01-18T06:36:40.816Z,1011.07
2016-01-18T06:37:40.850Z,1011.05
2016-01-18T06:38:40.885Z,1011.07
2016-01-18T06:39:40.935Z,1011.03
2016-01-18T06:40:40.968Z,1011.06
2016-01-18T06:41:41.017Z,1011.05
2016-01-18T06:42:41.052Z,1011.03
2016-01-18T06:43:41.101Z,1011.02
2016-01-18T06:44:41.119Z,1011.05
2016-01-18T06:45:41.168Z,1011.03
2016-01-18T06:46:41.203Z,1011.03
2016-01-18T06:47:41.252Z,1011.01
2016-01-18T06:48:41.287Z,1011.03
2016-01-18T06:49:41.351Z,1011.01
2016-01-18T06:50:41.385Z,1011.01
2016-01-18T06:51:41.403Z,1011.02
2016-01-18T06:52:41.454Z,1011
2016-01-18T06:53:41.487Z,1010.98
2016-01-18T06:54:41.537Z,1010.98
2016-01-18T06:55:41.570Z,1010.99
2016-01-18T06:56:41.620Z,1011
2016-01-18T06:57:41.670Z,1010.97
2016-01-18T06:58:41.688Z,1010.99
2016-01-18T06:59:41.769Z,1011.01
2016-01-18T07:00:41.772Z,1010.98
2016-01-18T07:01:41.822Z,1010.97
2016-01-18T07:02:41.855Z,1011.01
2016-01-18T07:03:41.889Z,1010.99
2016-01-18T07:04:41.969Z,1011.02
2016-01-18T07:05:41.989Z,1011.03
2016-01-18T07:06:42.022Z,1011.04
2016-01-18T07:07:42.056Z,1011.04
2016-01-18T07:08:42.090Z,1010.96
2016-01-18T07:09:42.141Z,1010.97
2016-01-18T07:10:42.188Z,1010.99
2016-01-18T07:11:42.239Z,1010.97
2016-01-18T07:12:42.273Z,1010.95
2016-01-18T07:13:42.290Z,1010.96
2016-01-18T07:14:42.357Z,1010.94
2016-01-18T07:15:42.374Z,1010.97
2016-01-18T07:16:42.471Z,1010.98
2016-01-18T07:17:42.458Z,1010.96
2016-01-18T07:18:42.539Z,1010.97
2016-01-18T07:19:42.542Z,1010.96
2016-01-18T07:20:42.590Z,1010.98
2016-01-18T07:21:42.609Z,1010.99
2016-01-18T07:22:42.675Z,1010.95
2016-01-18T07:23:42.756Z,1010.96
2016-01-18T07:24:42.743Z,1010.97
2016-01-18T07:25:42.776Z,1010.95
2016-01-18T07:26:42.842Z,1010.97
2016-01-18T07:27:42.859Z,1010.97
2016-01-18T07:28:42.910Z,1011
2016-01-18T07:29:42.975Z,1010.94
2016-01-18T07:30:42.992Z,1010.95
2016-01-18T07:31:43.012Z,1010.97
2016-01-18T07:32:43.061Z,1010.98
2016-01-18T07:33:43.095Z,1010.96
2016-01-18T07:34:43.144Z,1010.94
2016-01-18T07:35:43.178Z,1010.91
2016-01-18T07:36:43.213Z,1010.93
2016-01-18T07:37:43.261Z,1010.89
2016-01-18T07:38:43.296Z,1010.9
2016-01-18T07:39:43.330Z,1010.87
2016-01-18T07:40:43.380Z,1010.87
2016-01-18T07:41:43.430Z,1010.84
2016-01-18T07:42:43.463Z,1010.87
2016-01-18T07:43:43.528Z,1010.85
2016-01-18T07:44:43.547Z,1010.84
2016-01-18T07:45:43.580Z,1010.82
2016-01-18T07:46:43.629Z,1010.85
2016-01-18T07:47:43.663Z,1010.86
2016-01-18T07:48:43.698Z,1010.87
2016-01-18T07:49:43.732Z,1010.83
2016-01-18T07:50:43.765Z,1010.85
2016-01-18T07:51:43.815Z,1010.86
2016-01-18T07:52:43.895Z,1010.82
2016-01-18T07:53:43.898Z,1010.84
2016-01-18T07:54:43.933Z,1010.82
2016-01-18T07:55:43.967Z,1010.85
2016-01-18T07:56:44.016Z,1010.86
2016-01-18T07:57:44.050Z,1010.86
2016-01-18T07:58:44.084Z,1010.83
2016-01-18T07:59:44.134Z,1010.84
2016-01-18T08:00:44.168Z,1010.83
2016-01-18T08:01:44.233Z,1010.84
2016-01-18T08:02:44.282Z,1010.82
2016-01-18T08:03:44.301Z,1010.82
2016-01-18T08:04:44.334Z,1010.81
2016-01-18T08:05:44.416Z,1010.85
2016-01-18T08:06:44.402Z,1010.8
2016-01-18T08:07:44.452Z,1010.81
2016-01-18T08:08:44.486Z,1010.78
2016-01-18T08:09:44.535Z,1010.77
2016-01-18T08:10:44.569Z,1010.75
2016-01-18T08:11:44.619Z,1010.77
2016-01-18T08:12:44.652Z,1010.75
2016-01-18T08:13:44.687Z,1010.75
2016-01-18T08:14:44.736Z,1010.74
2016-01-18T08:15:44.802Z,1010.71
2016-01-18T08:16:44.852Z,1010.69
2016-01-18T08:17:44.854Z,1010.71
2016-01-18T08:18:44.904Z,1010.69
2016-01-18T08:19:44.938Z,1010.67
2016-01-18T08:20:44.971Z,1010.7
2016-01-18T08:21:45.005Z,1010.72
2016-01-18T08:22:45.055Z,1010.69
2016-01-18T08:23:45.104Z,1010.73
2016-01-18T08:24:45.123Z,1010.69
2016-01-18T08:25:45.173Z,1010.71
2016-01-18T08:26:45.207Z,1010.68
2016-01-18T08:27:45.273Z,1010.69
2016-01-18T08:28:45.306Z,1010.63
2016-01-18T08:29:45.357Z,1010.65
2016-01-18T08:30:45.374Z,1010.61
2016-01-18T08:31:45.408Z,1010.6
2016-01-18T08:32:45.458Z,1010.58
2016-01-18T08:33:45.524Z,1010.59
2016-01-18T08:34:45.541Z,1010.56
2016-01-18T08:35:45.576Z,1010.58
2016-01-18T08:36:45.610Z,1010.55
2016-01-18T08:37:45.659Z,1010.53
2016-01-18T08:38:45.724Z,1010.47
2016-01-18T08:39:45.726Z,1010.48
2016-01-18T08:40:45.776Z,1010.47
2016-01-18T08:41:45.810Z,1010.45
2016-01-18T08:42:45.871Z,1010.42
2016-01-18T08:43:45.876Z,1010.4
2016-01-18T08:44:45.928Z,1010.38
2016-01-18T08:45:45.933Z,1010.34
2016-01-18T08:46:45.953Z,1010.35
2016-01-18T08:47:46.007Z,1010.37
2016-01-18T08:48:46.021Z,1010.4
2016-01-18T08:49:46.066Z,1010.36
2016-01-18T08:50:46.110Z,1010.35
2016-01-18T08:51:46.139Z,1010.37
2016-01-18T08:52:46.185Z,1010.34
2016-01-18T08:53:46.217Z,1010.32
2016-01-18T08:54:46.266Z,1010.33
2016-01-18T08:55:46.282Z,1010.28
2016-01-18T08:56:46.315Z,1010.26
2016-01-18T08:57:46.363Z,1010.27
2016-01-18T08:58:46.396Z,1010.24
2016-01-18T08:59:46.428Z,1010.27
2016-01-18T09:00:46.477Z,1010.3
2016-01-18T09:01:46.526Z,1010.3
2016-01-18T09:02:46.545Z,1010.25
2016-01-18T09:03:46.578Z,1010.27
2016-01-18T09:04:46.627Z,1010.32
2016-01-18T09:05:46.661Z,1010.34
2016-01-18T09:06:46.772Z,1010.36
2016-01-18T09:07:46.760Z,1010.37
2016-01-18T09:08:46.777Z,1010.38
2016-01-18T09:09:46.826Z,1010.38
2016-01-18T09:10:46.861Z,1010.38
2016-01-18T09:11:46.910Z,1010.38
2016-01-18T09:12:46.945Z,1010.36
2016-01-18T09:13:46.979Z,1010.44
2016-01-18T09:14:47.028Z,1010.4
2016-01-18T09:15:47.062Z,1010.42
2016-01-18T09:16:47.096Z,1010.4
2016-01-18T09:17:47.131Z,1010.4
2016-01-18T09:18:47.180Z,1010.41
2016-01-18T09:19:47.215Z,1010.43
2016-01-18T09:20:47.249Z,1010.42
2016-01-18T09:21:47.298Z,1010.41
2016-01-18T09:22:47.332Z,1010.37
2016-01-18T09:23:47.382Z,1010.35
2016-01-18T09:24:47.415Z,1010.33
2016-01-18T09:25:47.449Z,1010.33
2016-01-18T09:26:47.483Z,1010.3
2016-01-18T09:27:47.533Z,1010.28
2016-01-18T09:28:47.582Z,1010.25
2016-01-18T09:29:47.617Z,1010.23
2016-01-18T09:30:47.712Z,1010.22
2016-01-18T09:31:47.700Z,1010.2
2016-01-18T09:32:47.750Z,1010.17
2016-01-18T09:33:47.767Z,1010.15
2016-01-18T09:34:47.817Z,1010.15
2016-01-18T09:35:47.882Z,1010.19
2016-01-18T09:36:47.933Z,1010.15
2016-01-18T09:37:47.935Z,1010.14
2016-01-18T09:38:48.000Z,1010.09
2016-01-18T09:39:48.018Z,1010.07
2016-01-18T09:40:48.068Z,1010.04
2016-01-18T09:41:48.101Z,1010.03
2016-01-18T09:42:48.136Z,1010.04
2016-01-18T09:43:48.216Z,1010.03
2016-01-18T09:44:48.250Z,1010.02
2016-01-18T09:45:48.269Z,1009.97
2016-01-18T09:46:48.302Z,1009.99
2016-01-18T09:47:48.899Z,1009.96
2016-01-18T09:48:48.368Z,1009.99
2016-01-18T09:49:48.402Z,1009.95
2016-01-18T09:50:48.451Z,1009.93
2016-01-18T09:51:48.502Z,1009.94
2016-01-18T09:52:48.534Z,1009.89
2016-01-18T09:53:48.568Z,1009.92
2016-01-18T09:54:48.618Z,1009.94
2016-01-18T09:55:48.652Z,1009.94
2016-01-18T09:56:48.702Z,1009.98
2016-01-18T09:57:48.736Z,1009.99
2016-01-18T09:58:49.473Z,1009.93
2016-01-18T09:59:48.820Z,1009.9
2016-01-18T10:00:48.853Z,1009.86
2016-01-18T10:01:48.887Z,1009.87
2016-01-18T10:02:48.916Z,1009.86
2016-01-18T10:03:52.547Z,1009.84
2016-01-18T10:04:49.253Z,1009.87
2016-01-18T10:05:49.895Z,1009.87
2016-01-18T10:06:49.320Z,1009.89
2016-01-18T10:07:49.386Z,1009.89
2016-01-18T10:08:49.638Z,1009.84
2016-01-18T10:09:49.625Z,1009.86
2016-01-18T10:10:49.612Z,1009.82
2016-01-18T10:11:49.646Z,1009.82
2016-01-18T10:12:49.696Z,1009.83
2016-01-18T10:13:49.886Z,1009.77
2016-01-18T10:14:50.389Z,1009.79
2016-01-18T10:15:49.736Z,1009.76
2016-01-18T10:16:50.191Z,1009.73
2016-01-18T10:17:50.241Z,1009.69
2016-01-18T10:18:50.555Z,1009.7
2016-01-18T10:19:49.622Z,1009.68
2016-01-18T10:20:50.671Z,1009.69
2016-01-18T10:21:49.674Z,1009.7
2016-01-18T10:22:49.723Z,1009.67
2016-01-18T10:23:49.758Z,1009.63
2016-01-18T10:24:49.807Z,1009.58
2016-01-18T10:25:49.841Z,1009.59
2016-01-18T10:26:49.874Z,1009.55
2016-01-18T10:27:49.923Z,1009.56
2016-01-18T10:28:49.958Z,1009.55
2016-01-18T10:29:50.008Z,1009.56
2016-01-18T10:30:50.088Z,1009.53
2016-01-18T10:31:50.184Z,1009.52
2016-01-18T10:32:50.125Z,1009.49
2016-01-18T10:33:50.159Z,1009.55
2016-01-18T10:34:50.193Z,1009.51
2016-01-18T10:35:50.336Z,1009.49
2016-01-18T10:36:50.276Z,1009.52
2016-01-18T10:37:50.325Z,1009.48
2016-01-18T10:38:50.359Z,1009.44
2016-01-18T10:39:50.394Z,1009.46
2016-01-18T10:40:50.428Z,1009.48
2016-01-18T10:41:50.477Z,1009.45
2016-01-18T10:42:50.527Z,1009.41
2016-01-18T10:43:50.561Z,1009.46
2016-01-18T10:44:51.454Z,1009.43
2016-01-18T10:45:51.035Z,1009.38
2016-01-18T10:46:50.694Z,1009.38
2016-01-18T10:47:50.728Z,1009.32
2016-01-18T10:48:50.761Z,1009.33
2016-01-18T10:49:51.108Z,1009.32
2016-01-18T10:51:08.830Z,1009.33
2016-01-18T10:51:51.427Z,1009.3
2016-01-18T10:52:51.350Z,1009.33
2016-01-18T10:53:51.525Z,1009.27
2016-01-18T10:54:51.324Z,1009.3
2016-01-18T10:55:51.047Z,1009.29
2016-01-18T10:56:51.080Z,1009.27
2016-01-18T10:57:51.113Z,1009.26
2016-01-18T10:58:51.163Z,1009.22
2016-01-18T10:59:51.197Z,1009.21
2016-01-18T11:00:51.279Z,1009.2
2016-01-18T11:01:51.281Z,1009.22
2016-01-18T11:02:51.346Z,1009.19
2016-01-18T11:03:51.364Z,1009.21
2016-01-18T11:04:51.398Z,1009.19
2016-01-18T11:05:51.432Z,1009.19
2016-01-18T11:06:51.498Z,1009.12
2016-01-18T11:07:51.515Z,1009.13
2016-01-18T11:08:51.581Z,1009.15
2016-01-18T11:09:51.600Z,1009.11
2016-01-18T11:10:51.649Z,1009.12
2016-01-18T11:11:51.730Z,1009.1
2016-01-18T11:12:51.717Z,1009.1
2016-01-18T11:13:51.767Z,1009.08
2016-01-18T11:14:51.816Z,1009.08
2016-01-18T11:15:51.834Z,1009.12
2016-01-18T11:16:51.868Z,1009.11
2016-01-18T11:17:51.918Z,1009.06
2016-01-18T11:18:51.967Z,1009.06
2016-01-18T11:19:52.002Z,1009.02
2016-01-18T11:20:52.035Z,1008.97
2016-01-18T11:21:52.069Z,1008.96
2016-01-18T11:22:52.119Z,1008.93
2016-01-18T11:23:52.169Z,1008.97
2016-01-18T11:24:52.249Z,1008.92
2016-01-18T11:25:52.252Z,1008.94
2016-01-18T11:26:52.270Z,1008.93
2016-01-18T11:27:52.320Z,1008.87
2016-01-18T11:28:52.354Z,1008.86
2016-01-18T11:29:52.403Z,1008.82
2016-01-18T11:30:52.437Z,1008.83
2016-01-18T11:31:52.471Z,1008.81
2016-01-18T11:32:52.521Z,1008.78
2016-01-18T11:33:52.570Z,1008.72
2016-01-18T11:34:52.588Z,1008.76
2016-01-18T11:35:52.638Z,1008.71
2016-01-18T11:36:52.688Z,1008.69
2016-01-18T11:37:52.737Z,1008.7
2016-01-18T11:38:52.756Z,1008.72
2016-01-18T11:39:52.806Z,1008.69
2016-01-18T11:40:52.840Z,1008.7
2016-01-18T11:41:52.873Z,1008.66
2016-01-18T11:42:52.923Z,1008.62
2016-01-18T11:43:53.019Z,1008.65
2016-01-18T11:44:53.006Z,1008.61
2016-01-18T11:45:53.040Z,1008.65
2016-01-18T11:46:53.075Z,1008.66
2016-01-18T11:47:53.108Z,1008.65
2016-01-18T11:48:53.157Z,1008.65
2016-01-18T11:49:53.192Z,1008.6
2016-01-18T11:50:53.350Z,1008.59
2016-01-18T11:51:53.338Z,1008.55
2016-01-18T11:52:53.308Z,1008.58
2016-01-18T11:53:53.358Z,1008.6
2016-01-18T11:54:54.392Z,1008.58
2016-01-18T11:55:53.505Z,1008.53
2016-01-18T11:56:53.522Z,1008.5
2016-01-18T11:57:53.510Z,1008.52
2016-01-18T11:58:53.575Z,1008.47
2016-01-18T11:59:53.593Z,1008.42
2016-01-18T12:01:00.955Z,1008.41
2016-01-18T12:01:53.927Z,1008.4
2016-01-18T12:02:53.711Z,1008.41
2016-01-18T12:03:53.760Z,1008.39
2016-01-18T12:04:53.794Z,1008.36
2016-01-18T12:05:53.906Z,1008.36
2016-01-18T12:06:53.910Z,1008.31
2016-01-18T12:07:53.912Z,1008.26
2016-01-18T12:08:53.977Z,1008.25
2016-01-18T12:09:53.995Z,1008.24
2016-01-18T12:10:54.044Z,1008.24
2016-01-18T12:11:54.079Z,1008.2
2016-01-18T12:12:54.113Z,1008.22
2016-01-18T12:13:54.147Z,1008.18
2016-01-18T12:14:54.195Z,1008.18
2016-01-18T12:15:54.245Z,1008.17
2016-01-18T12:16:54.281Z,1008.14
2016-01-18T12:17:54.329Z,1008.14
2016-01-18T12:18:54.347Z,1008.11
2016-01-18T12:19:54.397Z,1008.11
2016-01-18T12:20:54.431Z,1008.11
2016-01-18T12:21:54.481Z,1008.11
2016-01-18T12:22:54.514Z,1008.09
2016-01-18T12:23:54.564Z,1008.09
2016-01-18T12:24:54.645Z,1008.06
2016-01-18T12:25:54.632Z,1008.05
2016-01-18T12:26:54.666Z,1008.07
2016-01-18T12:27:54.731Z,1008.03
2016-01-18T12:28:54.750Z,1008.02
2016-01-18T12:29:54.815Z,1007.98
2016-01-18T12:30:54.833Z,1007.99
2016-01-18T12:31:54.882Z,1007.97
2016-01-18T12:32:54.916Z,1007.95
2016-01-18T12:33:54.951Z,1007.96
2016-01-18T12:34:55.000Z,1007.94
2016-01-18T12:35:55.034Z,1007.99
2016-01-18T12:36:55.068Z,1007.92
2016-01-18T12:37:55.117Z,1007.89
2016-01-18T12:38:55.152Z,1007.89
2016-01-18T12:39:55.201Z,1007.9
2016-01-18T12:40:55.234Z,1007.85
2016-01-18T12:41:55.269Z,1007.87
2016-01-18T12:42:55.303Z,1007.84
2016-01-18T12:43:55.353Z,1007.81
2016-01-18T12:44:55.386Z,1007.82
2016-01-18T12:45:55.436Z,1007.78
2016-01-18T12:46:55.485Z,1007.77
2016-01-18T12:47:55.519Z,1007.84
2016-01-18T12:48:55.553Z,1007.84
2016-01-18T12:49:55.602Z,1007.85
2016-01-18T12:50:55.636Z,1007.86
2016-01-18T12:51:55.670Z,1007.79
2016-01-18T12:52:55.736Z,1007.78
2016-01-18T12:53:55.755Z,1007.71
2016-01-18T12:54:55.788Z,1007.79
2016-01-18T12:55:55.838Z,1007.78
2016-01-18T12:56:55.888Z,1007.74
2016-01-18T12:57:55.922Z,1007.76
2016-01-18T12:58:55.955Z,1007.72
2016-01-18T12:59:55.988Z,1007.66
2016-01-18T13:00:56.086Z,1007.65
2016-01-18T13:01:56.072Z,1007.67
2016-01-18T13:02:56.107Z,1007.66
2016-01-18T13:03:56.171Z,1007.69
2016-01-18T13:04:56.190Z,1007.66
2016-01-18T13:05:56.240Z,1007.65
2016-01-18T13:06:56.274Z,1007.67
2016-01-18T13:07:56.338Z,1007.65
2016-01-18T13:08:56.373Z,1007.62
2016-01-18T13:09:56.406Z,1007.59
2016-01-18T13:10:56.457Z,1007.55
2016-01-18T13:11:56.490Z,1007.5
2016-01-18T13:12:56.524Z,1007.53
2016-01-18T13:13:56.573Z,1007.46
2016-01-18T13:14:56.607Z,1007.47
2016-01-18T13:15:56.642Z,1007.44
2016-01-18T13:16:56.691Z,1007.4
2016-01-18T13:17:56.725Z,1007.43
2016-01-18T13:18:56.775Z,1007.42
2016-01-18T13:19:56.824Z,1007.4
2016-01-18T13:20:56.858Z,1007.38
2016-01-18T13:21:56.892Z,1007.36
2016-01-18T13:22:56.925Z,1007.38
2016-01-18T13:23:56.992Z,1007.32
2016-01-18T13:24:57.009Z,1007.31
2016-01-18T13:25:57.059Z,1007.31
2016-01-18T13:26:57.094Z,1007.26
2016-01-18T13:27:57.142Z,1007.25
2016-01-18T13:28:57.177Z,1007.22
2016-01-18T13:29:57.210Z,1007.23
2016-01-18T13:30:57.261Z,1007.22
2016-01-18T13:31:57.294Z,1007.2
2016-01-18T13:32:57.343Z,1007.21
2016-01-18T13:33:57.377Z,1007.2
2016-01-18T13:34:57.411Z,1007.24
2016-01-18T13:35:57.461Z,1007.21
2016-01-18T13:36:57.511Z,1007.22
2016-01-18T13:37:57.544Z,1007.23
2016-01-18T13:38:57.578Z,1007.21
2016-01-18T13:39:57.613Z,1007.23
2016-01-18T13:40:57.662Z,1007.22
2016-01-18T13:41:57.696Z,1007.19
2016-01-18T13:42:57.746Z,1007.23
2016-01-18T13:43:57.779Z,1007.25
2016-01-18T13:44:57.829Z,1007.27
2016-01-18T13:45:57.862Z,1007.27
2016-01-18T13:46:57.897Z,1007.27
2016-01-18T13:47:57.931Z,1007.25
2016-01-18T13:48:57.981Z,1007.22
2016-01-18T13:49:58.014Z,1007.2
2016-01-18T13:50:58.064Z,1007.15
2016-01-18T13:51:58.098Z,1007.15
2016-01-18T13:52:58.148Z,1007.17
2016-01-18T13:53:58.181Z,1007.14
2016-01-18T13:54:58.215Z,1007.15
2016-01-18T13:55:58.264Z,1007.1
2016-01-18T13:56:58.299Z,1007.07
2016-01-18T13:57:58.333Z,1006.99
2016-01-18T13:58:58.383Z,1006.98
2016-01-18T13:59:58.416Z,1006.98
2016-01-18T14:00:58.450Z,1007
2016-01-18T14:01:58.484Z,1006.97
2016-01-18T14:02:58.533Z,1006.97
2016-01-18T14:03:58.568Z,1006.96
2016-01-18T14:04:58.601Z,1007
2016-01-18T14:05:58.635Z,1006.96
2016-01-18T14:06:58.670Z,1006.96
2016-01-18T14:07:58.719Z,1007.02
2016-01-18T14:08:58.753Z,1007
2016-01-18T14:09:58.787Z,1007.06
2016-01-18T14:10:58.820Z,1007
2016-01-18T14:11:58.871Z,1007.05
2016-01-18T14:12:58.904Z,1007
2016-01-18T14:13:58.938Z,1007.01
2016-01-18T14:14:58.987Z,1007
2016-01-18T14:15:59.021Z,1006.99
2016-01-18T14:16:59.056Z,1006.97
2016-01-18T14:17:59.090Z,1006.98
2016-01-18T14:18:59.140Z,1006.98
2016-01-18T14:19:59.173Z,1007
2016-01-18T14:20:59.207Z,1007.03
2016-01-18T14:21:59.242Z,1007.04
2016-01-18T14:22:59.290Z,1007.02
2016-01-18T14:23:59.325Z,1006.96
2016-01-18T14:24:59.359Z,1007.01
2016-01-18T14:25:59.392Z,1006.96
2016-01-18T14:26:59.442Z,1006.96
2016-01-18T14:27:59.475Z,1006.92
2016-01-18T14:28:59.510Z,1006.9
2016-01-18T14:29:59.559Z,1006.87
2016-01-18T14:30:59.594Z,1006.86
2016-01-18T14:31:59.628Z,1006.86
2016-01-18T14:32:59.677Z,1006.86
2016-01-18T14:33:59.711Z,1006.86
2016-01-18T14:34:59.744Z,1006.87
2016-01-18T14:35:59.779Z,1006.91
2016-01-18T14:36:59.828Z,1006.89
2016-01-18T14:37:59.863Z,1006.91
2016-01-18T14:38:59.912Z,1006.94
2016-01-18T14:39:59.946Z,1006.9
2016-01-18T14:40:59.980Z,1006.9
2016-01-18T14:42:00.014Z,1006.9
2016-01-18T14:43:00.048Z,1006.84
2016-01-18T14:44:00.096Z,1006.87
2016-01-18T14:45:00.131Z,1006.87
2016-01-18T14:46:00.166Z,1006.87
2016-01-18T14:47:00.246Z,1006.87
2016-01-18T14:48:00.248Z,1006.88
2016-01-18T14:49:00.282Z,1006.87
2016-01-18T14:50:00.332Z,1006.85
2016-01-18T14:51:00.366Z,1006.89
2016-01-18T14:52:00.400Z,1006.85
2016-01-18T14:53:00.450Z,1006.82
2016-01-18T14:54:00.483Z,1006.82
2016-01-18T14:55:00.518Z,1006.81
2016-01-18T14:56:00.551Z,1006.79
2016-01-18T14:57:00.601Z,1006.76
2016-01-18T14:58:00.634Z,1006.73
2016-01-18T14:59:00.669Z,1006.71
2016-01-18T15:00:00.719Z,1006.67
2016-01-18T15:01:00.752Z,1006.66
2016-01-18T15:02:00.786Z,1006.63
2016-01-18T15:03:00.836Z,1006.63
2016-01-18T15:04:00.870Z,1006.63
2016-01-18T15:05:00.903Z,1006.57
2016-01-18T15:06:00.938Z,1006.53
2016-01-18T15:07:00.988Z,1006.58
2016-01-18T15:08:01.022Z,1006.54
2016-01-18T15:09:01.071Z,1006.53
2016-01-18T15:10:01.105Z,1006.5
2016-01-18T15:11:01.139Z,1006.46
2016-01-18T15:12:01.188Z,1006.47
2016-01-18T15:13:01.222Z,1006.48
2016-01-18T15:14:01.271Z,1006.47
2016-01-18T15:15:01.306Z,1006.47
2016-01-18T15:16:01.340Z,1006.48
2016-01-18T15:17:01.374Z,1006.5
2016-01-18T15:18:01.423Z,1006.47
2016-01-18T15:19:01.457Z,1006.51
2016-01-18T15:20:01.491Z,1006.52
2016-01-18T15:21:01.541Z,1006.43
2016-01-18T15:22:01.574Z,1006.44
2016-01-18T15:23:01.624Z,1006.42
2016-01-18T15:24:01.658Z,1006.43
2016-01-18T15:25:01.707Z,1006.42
2016-01-18T15:26:01.742Z,1006.45
2016-01-18T15:27:01.775Z,1006.44
2016-01-18T15:28:01.825Z,1006.41
2016-01-18T15:29:01.859Z,1006.41
2016-01-18T15:30:01.909Z,1006.4
2016-01-18T15:31:01.943Z,1006.38
2016-01-18T15:32:01.976Z,1006.4
2016-01-18T15:33:02.323Z,1006.4
2016-01-18T15:34:02.091Z,1006.41
2016-01-18T15:35:02.109Z,1006.44
2016-01-18T15:36:02.144Z,1006.44
2016-01-18T15:37:02.178Z,1006.46
2016-01-18T15:38:02.228Z,1006.5
2016-01-18T15:39:02.261Z,1006.51
2016-01-18T15:40:02.310Z,1006.47
2016-01-18T15:41:02.344Z,1006.47
2016-01-18T15:42:02.394Z,1006.51
2016-01-18T15:43:02.428Z,1006.48
2016-01-18T15:44:02.463Z,1006.48
2016-01-18T15:45:02.511Z,1006.46
2016-01-18T15:46:02.546Z,1006.48
2016-01-18T15:47:02.706Z,1006.44
2016-01-18T15:48:02.770Z,1006.45
2016-01-18T15:49:02.677Z,1006.48
2016-01-18T15:50:02.727Z,1006.48
2016-01-18T15:51:02.792Z,1006.54
2016-01-18T15:52:02.794Z,1006.47
2016-01-18T15:53:02.828Z,1006.51
2016-01-18T15:54:02.878Z,1006.53
2016-01-18T15:55:02.911Z,1006.58
2016-01-18T15:56:02.946Z,1006.57
2016-01-18T15:57:02.996Z,1006.56
2016-01-18T15:58:03.029Z,1006.62
2016-01-18T15:59:03.079Z,1006.58
2016-01-18T16:00:03.112Z,1006.58
2016-01-18T16:01:03.163Z,1006.57
2016-01-18T16:02:03.196Z,1006.6
2016-01-18T16:03:03.246Z,1006.61
2016-01-18T16:04:03.279Z,1006.64
2016-01-18T16:05:03.313Z,1006.63
2016-01-18T16:06:03.363Z,1006.62
2016-01-18T16:07:03.398Z,1006.64
2016-01-18T16:08:03.446Z,1006.61
2016-01-18T16:09:03.481Z,1006.61
2016-01-18T16:10:03.671Z,1006.58
2016-01-18T16:11:03.565Z,1006.58
2016-01-18T16:12:03.614Z,1006.53
2016-01-18T16:13:03.648Z,1006.51
2016-01-18T16:14:03.681Z,1006.55
2016-01-18T16:15:03.732Z,1006.51
2016-01-18T16:16:03.765Z,1006.5
2016-01-18T16:17:03.800Z,1006.51
2016-01-18T16:18:03.848Z,1006.5
2016-01-18T16:19:03.884Z,1006.5
2016-01-18T16:20:03.932Z,1006.48
2016-01-18T16:21:03.966Z,1006.48
2016-01-18T16:22:04.016Z,1006.48
2016-01-18T16:23:04.066Z,1006.46
2016-01-18T16:24:04.083Z,1006.46
2016-01-18T16:25:04.133Z,1006.48
2016-01-18T16:26:04.167Z,1006.47
2016-01-18T16:27:04.217Z,1006.46
2016-01-18T16:28:04.250Z,1006.53
2016-01-18T16:29:07.300Z,1006.46
2016-01-18T16:30:04.335Z,1006.48
2016-01-18T16:31:04.368Z,1006.44
2016-01-18T16:32:04.419Z,1006.45
2016-01-18T16:33:04.468Z,1006.4
2016-01-18T16:34:04.502Z,1006.36
2016-01-18T16:35:04.535Z,1006.38
2016-01-18T16:36:04.585Z,1006.39
2016-01-18T16:37:04.619Z,1006.31
2016-01-18T16:38:04.653Z,1006.32
2016-01-18T16:39:04.702Z,1006.32
2016-01-18T16:40:04.736Z,1006.33
2016-01-18T16:41:04.771Z,1006.34
2016-01-18T16:42:04.820Z,1006.32
2016-01-18T16:43:04.854Z,1006.33
2016-01-18T16:44:04.904Z,1006.31
2016-01-18T16:45:04.937Z,1006.28
2016-01-18T16:46:04.971Z,1006.3
2016-01-18T16:47:05.020Z,1006.25
2016-01-18T16:48:05.054Z,1006.3
2016-01-18T16:49:05.104Z,1006.29
2016-01-18T16:50:05.139Z,1006.29
2016-01-18T16:51:05.187Z,1006.25
2016-01-18T16:52:05.222Z,1006.29
2016-01-18T16:53:05.255Z,1006.29
2016-01-18T16:54:05.305Z,1006.32
2016-01-18T16:55:05.355Z,1006.33
2016-01-18T16:56:05.373Z,1006.31
2016-01-18T16:57:05.422Z,1006.3
2016-01-18T16:58:05.456Z,1006.33
2016-01-18T16:59:05.491Z,1006.33
2016-01-18T17:00:05.540Z,1006.35
2016-01-18T17:01:05.574Z,1006.36
2016-01-18T17:02:05.624Z,1006.31
2016-01-18T17:03:05.658Z,1006.33
2016-01-18T17:04:05.723Z,1006.35
2016-01-18T17:05:05.741Z,1006.31
2016-01-18T17:06:05.775Z,1006.33
2016-01-18T17:07:05.826Z,1006.34
2016-01-18T17:08:05.859Z,1006.35
2016-01-18T17:09:05.908Z,1006.32
2016-01-18T17:10:05.943Z,1006.3
2016-01-18T17:11:05.977Z,1006.34
2016-01-18T17:12:06.027Z,1006.33
2016-01-18T17:13:06.060Z,1006.34
2016-01-18T17:14:06.110Z,1006.37
2016-01-18T17:15:06.144Z,1006.34
2016-01-18T17:16:06.178Z,1006.33
2016-01-18T17:17:06.221Z,1006.34
2016-01-18T17:18:06.270Z,1006.34
2016-01-18T17:19:06.305Z,1006.32
2016-01-18T17:20:06.339Z,1006.33
2016-01-18T17:21:06.389Z,1006.29
2016-01-18T17:22:06.422Z,1006.3
2016-01-18T17:23:06.473Z,1006.29
2016-01-18T17:24:06.756Z,1006.34
2016-01-18T17:25:06.540Z,1006.34
2016-01-18T17:26:06.590Z,1006.31
2016-01-18T17:27:06.623Z,1006.35
2016-01-18T17:28:06.658Z,1006.31
2016-01-18T17:29:06.706Z,1006.31
2016-01-18T17:30:06.741Z,1006.26
2016-01-18T17:31:06.791Z,1006.3
2016-01-18T17:32:06.839Z,1006.3
2016-01-18T17:33:07.031Z,1006.27
2016-01-18T17:34:06.908Z,1006.28
2016-01-18T17:35:06.957Z,1006.24
2016-01-18T17:36:06.991Z,1006.22
2016-01-18T17:37:07.025Z,1006.23
2016-01-18T17:38:07.075Z,1006.25
2016-01-18T17:39:07.109Z,1006.22
2016-01-18T17:40:07.158Z,1006.27
2016-01-18T17:41:07.192Z,1006.28
2016-01-18T17:42:07.241Z,1006.28
2016-01-18T17:43:07.277Z,1006.34
2016-01-18T17:44:07.310Z,1006.27
2016-01-18T17:45:07.359Z,1006.26
2016-01-18T17:46:07.393Z,1006.27
2016-01-18T17:47:07.443Z,1006.28
2016-01-18T17:48:07.477Z,1006.27
2016-01-18T17:49:07.526Z,1006.29
2016-01-18T17:50:07.551Z,1006.29
2016-01-18T17:51:07.592Z,1006.3
2016-01-18T17:52:07.616Z,1006.3
2016-01-18T17:53:07.642Z,1006.28
2016-01-18T17:54:07.683Z,1006.26
2016-01-18T17:55:07.729Z,1006.22
2016-01-18T17:56:07.760Z,1006.24
2016-01-18T17:57:07.790Z,1006.28
2016-01-18T17:58:07.837Z,1006.2
2016-01-18T17:59:07.867Z,1006.18
2016-01-18T18:00:07.899Z,1006.2
2016-01-18T18:01:07.947Z,1006.2
2016-01-18T18:02:07.981Z,1006.2
2016-01-18T18:03:08.029Z,1006.17
2016-01-18T18:04:08.062Z,1006.17
2016-01-18T18:05:08.110Z,1006.2
2016-01-18T18:06:08.145Z,1006.19
2016-01-18T18:07:08.178Z,1006.21
2016-01-18T18:08:08.228Z,1006.27
2016-01-18T18:09:08.261Z,1006.25
2016-01-18T18:10:08.311Z,1006.24
2016-01-18T18:11:08.345Z,1006.26